Terminal Aerodrome Forecast
Issued by NWS

Home | Current Version | Previous Version | Text Only | Print | Product List | Glossary On
Versions: 1 2 3 4 5 6 7 8 9 10 11 12 13 14 15 16 17
101
FTPA31 PHFO 060227 AAA
TAFHNY
TAF AMD
PHNY 060227Z 0602/0624 27010KT P6SM SCT025
      TEMPO 0602/0604 BKN015
     FM060500 05004KT P6SM SCT025
     FM062000 23008KT P6SM SCT025 BKN035=

USA.gov is the U.S. government's official web portal to all federal, state and local government web resources and services.